14 août 2022

Temps Code Temps Temp. Vue Base cloud Vent METAR/SPECI
07:00
V
18 °C 10 km+ - 050° 050° 6 kt METAR LFOP 140500Z AUTO 05006KT CAVOK 18/07 Q1007
06:30
V
17 °C 10 km+ - 050° 050° 7 kt METAR LFOP 140430Z AUTO 05007KT CAVOK 17/07 Q1007
06:00
V
18 °C 10 km+ - 050° 050° 7 kt METAR LFOP 140400Z AUTO 05007KT CAVOK 18/07 Q1008
05:30
V
18 °C 10 km+ - 040° 040° 7 kt METAR LFOP 140330Z AUTO 04007KT CAVOK 18/07 Q1007
05:00
V
18 °C 10 km+ - 040° 040° 8 kt METAR LFOP 140300Z AUTO 04008KT CAVOK 18/07 Q1008
04:30
V
18 °C 10 km+ - 050° 050° 7 kt METAR LFOP 140230Z AUTO 05007KT CAVOK 18/07 Q1008
04:00
V
18 °C 10 km+ - 060° 060° 8 kt METAR LFOP 140200Z AUTO 06008KT CAVOK 18/07 Q1008
03:30
V
18 °C 10 km+ - 060° 060° 8 kt METAR LFOP 140130Z AUTO 06008KT CAVOK 18/07 Q1008
03:00
V
18 °C 10 km+ - 050° 050° 7 kt METAR LFOP 140100Z AUTO 05007KT CAVOK 18/07 Q1009
02:30
V
18 °C 10 km+ - 060° 060° 7 kt METAR LFOP 140030Z AUTO 06007KT CAVOK 18/07 Q1009
02:00
V
19 °C 10 km+ - 060° 060° 7 kt METAR LFOP 140000Z AUTO 06007KT CAVOK 19/07 Q1009
01:30
V
20 °C 10 km+ - 070° 070° 6 kt METAR LFOP 132330Z AUTO 07006KT CAVOK 20/06 Q1010
01:00
V
19 °C 10 km+ - 060° 060° 7 kt METAR LFOP 132300Z AUTO 06007KT CAVOK 19/07 Q1010
00:30
V
20 °C 10 km+ - 060° 060° 7 kt METAR LFOP 132230Z AUTO 06007KT CAVOK 20/07 Q1010
00:00
V
20 °C 10 km+ - 060° 060° 8 kt METAR LFOP 132200Z AUTO 06008KT CAVOK 20/07 Q1010

13 août 2022

Temps Code Temps Temp. Vue Base cloud Vent METAR/SPECI
23:30
V
22 °C 10 km+ - 080° 080° 8 kt METAR LFOP 132130Z AUTO 08008KT CAVOK 22/07 Q1011
23:00
V
22 °C 10 km+ - 070° 070° 8 kt METAR LFOP 132100Z AUTO 07008KT CAVOK 22/06 Q1011
22:30
V
25 °C 10 km+ - 080° 080° 7 kt METAR LFOP 132030Z AUTO 08007KT CAVOK 25/07 Q1011
22:00
V
24 °C 10 km+ - 080° 080° 7 kt METAR LFOP 132000Z AUTO 08007KT CAVOK 24/07 Q1011 NOSIG
21:30
V
24 °C 10 km+ - 060° 060° 6 kt METAR LFOP 131930Z AUTO 06006KT CAVOK 24/06 Q1011 NOSIG
21:00
V
28 °C 10 km+ - 100° 100° 6 kt METAR LFOP 131900Z AUTO 10006KT CAVOK 28/06 Q1011 NOSIG
20:30
V
29 °C 10 km+ - 110° 110° 6 kt METAR LFOP 131830Z AUTO 11006KT CAVOK 29/06 Q1011 NOSIG
20:00
V
30 °C 10 km+ - 100° 100° 8 kt METAR LFOP 131800Z AUTO 10008KT 070V130 CAVOK 30/06 Q1011 NOSIG
19:30
V
31 °C 10 km+ - 100° 100° 8 kt METAR LFOP 131730Z AUTO 10008KT CAVOK 31/05 Q1011 NOSIG
19:00
V
31 °C 10 km+ - 120° 120° 9 kt METAR LFOP 131700Z AUTO 12009KT 080V150 CAVOK 31/05 Q1011 NOSIG
18:30
V
32 °C 10 km+ - 140° 140° 7 kt METAR LFOP 131630Z AUTO 14007KT CAVOK 32/05 Q1011 NOSIG
18:00
V
32 °C 10 km+ - 110° 110° 7 kt METAR LFOP 131600Z AUTO 11007KT 040V140 CAVOK 32/06 Q1012 NOSIG
17:30
V
32 °C 10 km+ - 090° 090° 8 kt METAR LFOP 131530Z AUTO 09008KT 020V140 CAVOK 32/06 Q1012 NOSIG
17:00
V
32 °C 10 km+ - 090° 090° 9 kt METAR LFOP 131500Z AUTO 09009KT 030V140 CAVOK 32/07 Q1012 NOSIG
16:30
V
32 °C 10 km+ - 110° 110° 10 kt METAR LFOP 131430Z AUTO 11010KT 050V140 CAVOK 32/07 Q1012 NOSIG
16:00
V
32 °C 10 km+ - 090° 090° 8 kt METAR LFOP 131400Z AUTO 09008KT 050V140 CAVOK 32/08 Q1013 NOSIG
15:30
V
32 °C 10 km+ - 100° 100° 9 - 21 kt METAR LFOP 131330Z AUTO 10009G21KT 040V160 CAVOK 32/07 Q1013 NOSIG
15:00
V
31 °C 10 km+ - 100° 100° 10 kt METAR LFOP 131300Z AUTO 10010KT 040V160 CAVOK 31/06 Q1013 NOSIG
14:30
V
31 °C 10 km+ - 100° 100° 11 kt METAR LFOP 131230Z AUTO 10011KT 050V140 CAVOK 31/06 Q1013 NOSIG
14:00
V
31 °C 10 km+ - 090° 090° 11 kt METAR LFOP 131200Z AUTO 09011KT 060V140 CAVOK 31/07 Q1014 NOSIG
13:30
V
31 °C 10 km+ - 120° 120° 12 kt METAR LFOP 131130Z AUTO 12012KT CAVOK 31/07 Q1014 NOSIG
13:00
V
30 °C 10 km+ - 100° 100° 12 kt METAR LFOP 131100Z AUTO 10012KT 070V130 CAVOK 30/07 Q1014 NOSIG
12:30
V
30 °C 10 km+ - 100° 100° 11 kt METAR LFOP 131030Z AUTO 10011KT 060V140 CAVOK 30/08 Q1014 NOSIG
12:00
V
29 °C 10 km+ - 090° 090° 11 kt METAR LFOP 131000Z AUTO 09011KT 060V120 CAVOK 29/08 Q1014 NOSIG
11:30
V
29 °C 10 km+ - 100° 100° 11 kt METAR LFOP 130930Z AUTO 10011KT CAVOK 29/08 Q1014 NOSIG
11:00
V
28 °C 10 km+ - 090° 090° 10 kt METAR LFOP 130900Z AUTO 09010KT CAVOK 28/08 Q1014 NOSIG
10:30
V
26 °C 10 km+ - 090° 090° 9 kt METAR LFOP 130830Z AUTO 09009KT CAVOK 26/08 Q1014 NOSIG
10:00
V
26 °C 10 km+ - 090° 090° 10 kt METAR LFOP 130800Z AUTO 09010KT CAVOK 26/08 Q1014 NOSIG
09:30
V
25 °C 10 km+ - 100° 100° 7 kt METAR LFOP 130730Z AUTO 10007KT CAVOK 25/08 Q1014 NOSIG
09:00
V
24 °C 10 km+ - 090° 090° 6 kt METAR LFOP 130700Z AUTO 09006KT CAVOK 24/08 Q1014 NOSIG
08:30
V
22 °C 10 km+ - 070° 070° 5 kt METAR LFOP 130630Z AUTO 07005KT CAVOK 22/08 Q1014 NOSIG
08:00
V
20 °C 10 km+ - 060° 060° 4 kt METAR LFOP 130600Z AUTO 06004KT CAVOK 20/09 Q1014 NOSIG
07:30
V
18 °C 10 km+ - 080° 080° 2 kt METAR LFOP 130530Z AUTO 08002KT CAVOK 18/07 Q1014
07:00
V
18 °C 10 km+ - 070° 070° 3 kt METAR LFOP 130500Z AUTO 07003KT CAVOK 18/07 Q1014
06:30
V
19 °C 10 km+ - 090° 090° 4 kt METAR LFOP 130430Z AUTO 09004KT CAVOK 19/07 Q1014
06:00
V
20 °C 10 km+ - 110° 110° 4 kt METAR LFOP 130400Z AUTO 11004KT CAVOK 20/07 Q1014
05:30
V
20 °C 10 km+ - 120° 120° 4 kt METAR LFOP 130330Z AUTO 12004KT CAVOK 20/07 Q1014
05:00
V
21 °C 10 km+ - 110° 110° 6 kt METAR LFOP 130300Z AUTO 11006KT CAVOK 21/07 Q1014
04:30
V
19 °C 10 km+ - 090° 090° 6 kt METAR LFOP 130230Z AUTO 09006KT CAVOK 19/08 Q1014
04:00
V
18 °C 10 km+ - 070° 070° 7 kt METAR LFOP 130200Z AUTO 07007KT CAVOK 18/08 Q1014
03:30
V
17 °C 10 km+ - 060° 060° 7 kt METAR LFOP 130130Z AUTO 06007KT CAVOK 17/08 Q1014
03:00
V
19 °C 10 km+ - 050° 050° 7 kt METAR LFOP 130100Z AUTO 05007KT CAVOK 19/08 Q1014
02:30
V
20 °C 10 km+ - 050° 050° 6 kt METAR LFOP 130030Z AUTO 05006KT CAVOK 20/08 Q1014
02:00
V
20 °C 10 km+ - 050° 050° 8 kt METAR LFOP 130000Z AUTO 05008KT CAVOK 20/08 Q1014
01:30
V
21 °C 10 km+ - 040° 040° 8 kt METAR LFOP 122330Z AUTO 04008KT CAVOK 21/08 Q1014
01:00
V
20 °C 10 km+ - 030° 030° 7 kt METAR LFOP 122300Z AUTO 03007KT CAVOK 20/08 Q1014
00:30
V
21 °C 10 km+ - 040° 040° 7 kt METAR LFOP 122230Z AUTO 04007KT CAVOK 21/09 Q1014
00:00
V
22 °C 10 km+ - 040° 040° 8 kt METAR LFOP 122200Z AUTO 04008KT CAVOK 22/09 Q1014

12 août 2022

Temps Code Temps Temp. Vue Base cloud Vent METAR/SPECI
23:30
V
23 °C 10 km+ - 020° 020° 8 kt METAR LFOP 122130Z AUTO 02008KT CAVOK 23/10 Q1014
23:00
V
24 °C 10 km+ - 010° 010° 8 kt METAR LFOP 122100Z AUTO 01008KT CAVOK 24/11 Q1014
22:30
V
24 °C 10 km+ - 010° 010° 7 kt METAR LFOP 122030Z AUTO 01007KT CAVOK 24/11 Q1014 NOSIG
22:00
V
26 °C 10 km+ - 360° 360° 6 kt METAR LFOP 122000Z AUTO 36006KT CAVOK 26/10 Q1014 NOSIG
21:30
V
27 °C 10 km+ - 360° 360° 6 kt METAR LFOP 121930Z AUTO 36006KT 320V030 CAVOK 27/09 Q1014 NOSIG
21:00
V
29 °C 10 km+ - 070° 070° 4 kt METAR LFOP 121900Z AUTO 07004KT CAVOK 29/06 Q1014 NOSIG
20:30
V
30 °C 10 km+ - 090° 090° 5 kt METAR LFOP 121830Z AUTO 09005KT CAVOK 30/06 Q1014 NOSIG
20:00
V
32 °C 10 km+ - 100° 100° 7 kt METAR LFOP 121800Z AUTO 10007KT CAVOK 32/05 Q1013 NOSIG
19:30
V
32 °C 10 km+ - 050° 050° 7 kt METAR LFOP 121730Z AUTO 05007KT CAVOK 32/05 Q1014 NOSIG
19:00
V
32 °C 10 km+ - 080° 080° 9 kt METAR LFOP 121700Z AUTO 08009KT 050V130 CAVOK 32/05 Q1014 NOSIG
18:30
V
33 °C 10 km+ - 080° 080° 8 kt METAR LFOP 121630Z AUTO 08008KT 050V120 CAVOK 33/05 Q1014 NOSIG
18:00
V
33 °C 10 km+ - 050° 050° 11 kt METAR LFOP 121600Z AUTO 05011KT 360V070 CAVOK 33/05 Q1014 NOSIG
17:30
V
33 °C 10 km+ - 060° 060° 9 - 26 kt METAR LFOP 121530Z AUTO 06009G26KT 010V150 CAVOK 33/06 Q1014 NOSIG
17:00
V
33 °C 10 km+ - 100° 100° 7 kt METAR LFOP 121500Z AUTO 10007KT 040V160 CAVOK 33/05 Q1014 NOSIG
16:30
V
33 °C 10 km+ - 080° 080° 9 kt METAR LFOP 121430Z AUTO 08009KT 040V120 CAVOK 33/05 Q1014 NOSIG
16:00
V
33 °C 10 km+ - 100° 100° 11 kt METAR LFOP 121400Z AUTO 10011KT 040V140 CAVOK 33/05 Q1015 NOSIG
15:30
V
33 °C 10 km+ - 070° 070° 12 kt METAR LFOP 121330Z AUTO 07012KT 030V110 CAVOK 33/04 Q1015 NOSIG
15:00
V
32 °C 10 km+ - 080° 080° 12 kt METAR LFOP 121300Z AUTO 08012KT 050V110 CAVOK 32/05 Q1015 NOSIG
14:30
V
32 °C 10 km+ - 080° 080° 11 kt METAR LFOP 121230Z AUTO 08011KT 040V120 CAVOK 32/05 Q1015 NOSIG
14:00
V
32 °C 10 km+ - 100° 100° 11 kt METAR LFOP 121200Z AUTO 10011KT 060V140 CAVOK 32/06 Q1015 NOSIG
13:30
V
31 °C 10 km+ - 100° 100° 12 kt METAR LFOP 121130Z AUTO 10012KT 070V160 CAVOK 31/06 Q1016 NOSIG
13:00
V
31 °C 10 km+ - 080° 080° 14 kt METAR LFOP 121100Z AUTO 08014KT 050V110 CAVOK 31/05 Q1016 NOSIG
12:30
V
31 °C 10 km+ - 080° 080° 13 kt METAR LFOP 121030Z AUTO 08013KT 040V110 CAVOK 31/05 Q1016 NOSIG
12:00
V
30 °C 10 km+ - 090° 090° 15 kt METAR LFOP 121000Z AUTO 09015KT CAVOK 30/06 Q1017 NOSIG
11:30
V
30 °C 10 km+ - 050° 050° 10 kt METAR LFOP 120930Z AUTO 05010KT 030V090 CAVOK 30/07 Q1017 NOSIG
11:00
V
29 °C 10 km+ - 070° 070° 9 kt METAR LFOP 120900Z AUTO 07009KT CAVOK 29/08 Q1017 NOSIG
10:30
V
28 °C 10 km+ - Var 000° 0 kt METAR LFOP 120830Z AUTO /////KT CAVOK 28/09 Q1017
10:00
V
26 °C 10 km+ - 070° 070° 9 kt METAR LFOP 120800Z AUTO 07009KT CAVOK 26/09 Q1017 NOSIG
09:30
V
25 °C 10 km+ - 060° 060° 9 kt METAR LFOP 120730Z AUTO 06009KT CAVOK 25/09 Q1017 NOSIG
09:00
V
23 °C 10 km+ - 050° 050° 8 kt METAR LFOP 120700Z AUTO 05008KT CAVOK 23/10 Q1017 NOSIG
08:30
V
21 °C 10 km+ - 040° 040° 7 kt METAR LFOP 120630Z AUTO 04007KT CAVOK 21/10 Q1017 NOSIG
08:00
V
20 °C 10 km+ - 040° 040° 6 kt METAR LFOP 120600Z AUTO 04006KT CAVOK 20/10 Q1017 NOSIG
07:30
V
17 °C 10 km+ - 050° 050° 7 kt METAR LFOP 120530Z AUTO 05007KT CAVOK 17/09 Q1017 NOSIG
07:00
V
16 °C 10 km+ - 050° 050° 7 kt METAR LFOP 120500Z AUTO 05007KT CAVOK 16/09 Q1017
06:30
V
16 °C 10 km+ - 050° 050° 9 kt METAR LFOP 120430Z AUTO 05009KT CAVOK 16/09 Q1017
06:00
V
16 °C 10 km+ - 050° 050° 7 kt METAR LFOP 120400Z AUTO 05007KT CAVOK 16/09 Q1017
05:30
V
17 °C 10 km+ - 050° 050° 8 kt METAR LFOP 120330Z AUTO 05008KT CAVOK 17/09 Q1017
05:00
V
17 °C 10 km+ - 050° 050° 7 kt METAR LFOP 120300Z AUTO 05007KT CAVOK 17/09 Q1017
04:30
V
18 °C 10 km+ - 040° 040° 9 kt METAR LFOP 120230Z AUTO 04009KT CAVOK 18/09 Q1017
04:00
V
18 °C 10 km+ - 050° 050° 9 kt METAR LFOP 120200Z AUTO 05009KT CAVOK 18/09 Q1017
03:30
V
19 °C 10 km+ - 040° 040° 9 kt METAR LFOP 120130Z AUTO 04009KT CAVOK 19/09 Q1017
03:00
V
19 °C 10 km+ - 030° 030° 9 kt METAR LFOP 120100Z AUTO 03009KT CAVOK 19/10 Q1017
02:30
V
19 °C 10 km+ - 040° 040° 8 kt METAR LFOP 120030Z AUTO 04008KT CAVOK 19/10 Q1017
Données plus anciennes

Nous et des tiers suivons ton comportement sur Internet sur notre site Web à l'aide de cookies. Si tu continues, nous supposons que tu acceptes notre politique en matière de cookies. Apprendre plus